Pagina principale
METAR-TAF:

METAR-TAF

Aeroporti :

Solenzara, Francia

Base di Solenzara

latitudine: 41-55N, longitudine: 009-24E, altezza: 8 m

Osservazione

Il bollettino è stato emesso 33 minuti fa, alle 10:00 UTC
Vento 7 kt da sud-est, variando fra est e sud
Temperature 22°C
Umidità 60%
Pressione 1020 hPa
Visibilità 10 km o più
nessuna nube inferiore a 1500 m e nessun cumulonembo

METAR: LFKS 211000Z AUTO 13007KT 100V180 CAVOK 22/14 Q1020

Ora: 12:33 (10:33 UTC)

Previsione

Il bollettino è stato emesso 2 ore e 33 minuti fa, alle 08:00 UTC
Previsione valida dal 21 alle 09 UTC al 22 alle 09 UTC
Vento 6 kt da sud-est
Visibilità 10 km o più
nessuna nube inferiore a 1500 m e nessun cumulonembo

TAF: LFKS 210800Z 2109/2209 13006KT CAVOK

Osservazioni e previsioni meteorologiche di più di 4000 aeroporti (messaggi METAR e TAF).

Le stazioni disponibili sono rappresentate dai dischi gialli e rossi sulla carta.

Puntare il mouse per vedere il nome della stazione.

Clicca sopra per visualizzare le osservazioni e previsioni meteorologiche.

Per cambiare la mappa : fare clic sui pulsanti verdi con una croce nera per ingrandire, il pulsante verde con un trattino per diminuire, o sulla freccia verde per le mappe adiacenti.


METAR-TAF: